WBKL

Labuan Airport

Labuan, Malaysia
TAF WBKL 210500Z 2106/2206 32007KT 9999 FEW010 BKN290 TEMPO 2110/2113 4000 TSRA SCT010 FEW013CB BKN130
Issued Valid From Valid To
Nov-21 @ 05:00 UTC
(an hour ago)
Nov-21 @ 06:00 UTC
(a few seconds ago)
Nov-22 @ 06:00 UTC
(in 24 hours)
Nov-21 @ 06:00 to Nov-22 @ 06:00
TAF WBKL 210500Z 2106/2206 32007KT 9999 FEW010 BKN290
Wind Visibility Clouds
320° at 7 knots 10,000+ meters
  • Few at 1,000' AGL
  • Broken at 29,000' AGL
Temporary Nov-21 @ 10:00 to Nov-21 @ 13:00
TEMPO 2110/2113 4000 TSRA SCT010 FEW013CB BKN130
Visibility Clouds Conditions
4,007 meters
  • Scattered at 1,000' AGL
  • Few at 1,300' AGL
  • Broken at 13,000' AGL
  • Thunderstorm
  • Rain
TAF WBKL 210500Z 2106/2206 32007KT 9999 FEW010 BKN290 TEMPO 2110/2113 4000 TSRA SCT010 FEW013CB BKN130
Issued Nov-21 @ 05:00 UTC
(an hour ago)
Valid From Nov-21 @ 06:00 UTC
(a few seconds ago)
Valid To Nov-22 @ 06:00 UTC
(in 24 hours)
Nov-21 @ 06:00 - Nov-22 @ 06:00
Wind Visibility
320° at 7 knots 10,000+ meters
Clouds
  • Few at 1,000' AGL
  • Broken at 29,000' AGL
Temporary Nov-21 @ 10:00 - Nov-21 @ 13:00
Clouds
  • Scattered at 1,000' AGL
  • Few at 1,300' AGL
  • Broken at 13,000' AGL
Conditions
  • Thunderstorm
  • Rain